createdAt,value
2023-02-23T00:01:09.742Z,99053.13
2023-02-23T00:03:41.872Z,99056.09
2023-02-23T00:06:13.707Z,99061.63
2023-02-23T00:08:47.944Z,99052.97
2023-02-23T00:11:21.354Z,99055.75
2023-02-23T00:13:53.660Z,99049.81
2023-02-23T00:16:26.401Z,99058.66
2023-02-23T00:19:00.517Z,99050.78
2023-02-23T00:21:34.834Z,99051.75
2023-02-23T00:24:09.386Z,99042.41
2023-02-23T00:26:45.331Z,99041.56
2023-02-23T00:29:20.744Z,99047.81
2023-02-23T00:31:52.619Z,99034.66
2023-02-23T00:34:24.412Z,99040.75
2023-02-23T00:36:56.100Z,99035.50
2023-02-23T00:39:29.361Z,99033.00
2023-02-23T00:42:03.346Z,99040.25
2023-02-23T00:44:35.376Z,99031.34
2023-02-23T00:47:08.068Z,99040.25
2023-02-23T00:49:39.791Z,99029.72
2023-02-23T00:52:14.392Z,99039.41
2023-02-23T00:54:46.228Z,99039.41
2023-02-23T00:57:20.657Z,99049.09
2023-02-23T00:59:54.404Z,99044.00
2023-02-23T01:02:30.678Z,99049.41
2023-02-23T01:05:02.453Z,99042.81
2023-02-23T01:07:36.246Z,99051.53
2023-02-23T01:10:19.300Z,99042.97
2023-02-23T01:12:54.634Z,99043.94
2023-02-23T01:15:28.123Z,99046.59
2023-02-23T01:17:59.874Z,99046.59
2023-02-23T01:20:36.133Z,99046.91
2023-02-23T01:23:10.836Z,99047.06
2023-02-23T01:25:45.070Z,99043.78
2023-02-23T01:28:16.955Z,99040.47
2023-02-23T01:30:48.974Z,99040.63
2023-02-23T01:33:20.749Z,99040.94
2023-02-23T01:35:59.574Z,99040.13
2023-02-23T01:38:31.298Z,99036.13
2023-02-23T01:41:03.041Z,99028.59
2023-02-23T01:43:37.061Z,99029.56
2023-02-23T01:46:08.919Z,99031.50
2023-02-23T01:48:40.689Z,99031.84
2023-02-23T01:51:21.301Z,99024.94
2023-02-23T01:54:15.952Z,99025.06
2023-02-23T01:56:58.217Z,99019.31
2023-02-23T01:59:39.912Z,99013.38
2023-02-23T02:02:13.831Z,99023.06
2023-02-23T02:04:46.291Z,99012.06
2023-02-23T02:07:26.779Z,99012.06
2023-02-23T02:10:11.637Z,99012.22
2023-02-23T02:12:54.688Z,99007.44
2023-02-23T02:15:32.770Z,99012.53
2023-02-23T02:18:19.319Z,99007.44
2023-02-23T02:21:11.658Z,99009.56
2023-02-23T02:24:29.679Z,99009.84
2023-02-23T02:27:12.207Z,99010.31
2023-02-23T02:29:59.091Z,98999.81
2023-02-23T02:32:33.728Z,99009.50
2023-02-23T02:35:19.001Z,98997.34
2023-02-23T02:38:12.499Z,99009.81
2023-02-23T02:40:57.454Z,99006.38
2023-02-23T02:43:39.600Z,99004.03
2023-02-23T02:46:20.307Z,99008.44
2023-02-23T02:49:10.718Z,98995.66
2023-02-23T02:51:49.148Z,99009.75
2023-02-23T02:54:36.972Z,99018.59
2023-02-23T02:57:10.629Z,99006.63
2023-02-23T03:00:06.675Z,99009.38
2023-02-23T03:02:59.408Z,99012.31
2023-02-23T03:06:03.798Z,99009.84
2023-02-23T03:09:21.563Z,99008.34
2023-02-23T03:12:25.992Z,99011.91
2023-02-23T03:15:36.232Z,99008.28
2023-02-23T03:18:35.335Z,99008.44
2023-02-23T03:21:35.205Z,99012.19
2023-02-23T03:25:15.737Z,99015.94
2023-02-23T03:28:25.423Z,99012.66
2023-02-23T03:31:21.954Z,99015.56
2023-02-23T03:34:38.657Z,99012.44
2023-02-23T03:38:00.356Z,99018.50
2023-02-23T03:40:57.781Z,99014.00
2023-02-23T03:43:53.570Z,99015.78
2023-02-23T03:46:47.860Z,99013.34
2023-02-23T03:49:41.042Z,99023.44
2023-02-23T03:52:38.397Z,99022.59
2023-02-23T03:55:37.163Z,99026.50
2023-02-23T03:58:32.503Z,99021.59
2023-02-23T04:01:28.968Z,99021.72
2023-02-23T04:04:20.209Z,99020.75
2023-02-23T04:07:14.823Z,99020.91
2023-02-23T04:10:04.982Z,99031.53
2023-02-23T04:13:15.518Z,99036.13
2023-02-23T04:15:58.114Z,99028.53
2023-02-23T04:18:33.157Z,99031.00
2023-02-23T04:21:06.103Z,99038.34
2023-02-23T04:23:40.762Z,99025.41
2023-02-23T04:26:16.448Z,99027.19
2023-02-23T04:28:48.084Z,99027.19
2023-02-23T04:31:22.188Z,99026.38
2023-02-23T04:33:55.210Z,99029.13
2023-02-23T04:36:26.947Z,99024.84
2023-02-23T04:38:58.624Z,99024.84
2023-02-23T04:41:30.277Z,99036.34
2023-02-23T04:44:01.997Z,99034.81
2023-02-23T04:46:33.695Z,99031.22
2023-02-23T04:49:05.348Z,99034.50
2023-02-23T04:51:37.466Z,99036.16
2023-02-23T04:54:09.826Z,99036.16
2023-02-23T04:56:41.602Z,99032.06
2023-02-23T04:59:16.109Z,99033.72
2023-02-23T05:01:50.451Z,99024.19
2023-02-23T05:04:22.121Z,99019.91
2023-02-23T05:06:53.836Z,99026.28
2023-02-23T05:09:25.615Z,99022.31
2023-02-23T05:11:57.332Z,99023.13
2023-02-23T05:14:31.111Z,99032.66
2023-02-23T05:17:02.790Z,99030.84
2023-02-23T05:19:34.499Z,99038.56
2023-02-23T05:22:12.524Z,99032.47
2023-02-23T05:24:44.220Z,99030.69
2023-02-23T05:27:18.855Z,99036.75
2023-02-23T05:29:50.524Z,99034.00
2023-02-23T05:32:22.803Z,99032.47
2023-02-23T05:34:57.027Z,99033.31
2023-02-23T05:37:28.824Z,99031.38
2023-02-23T05:40:00.980Z,99039.75
2023-02-23T05:42:35.186Z,99039.63
2023-02-23T05:45:07.652Z,99028.03
2023-02-23T05:47:39.432Z,99032.28
2023-02-23T05:50:12.594Z,99041.13
2023-02-23T05:52:45.174Z,99034.09
2023-02-23T05:55:17.096Z,99045.25
2023-02-23T05:57:49.646Z,99037.38
2023-02-23T06:00:22.067Z,99031.28
2023-02-23T06:02:54.293Z,99029.50
2023-02-23T06:05:26.138Z,99030.19
2023-02-23T06:07:59.244Z,99039.56
2023-02-23T06:10:30.917Z,99036.63
2023-02-23T06:13:03.562Z,99040.91
2023-02-23T06:15:37.425Z,99038.16
2023-02-23T06:18:09.635Z,99039.63
2023-02-23T06:20:41.336Z,99045.41
2023-02-23T06:23:13.994Z,99044.41
2023-02-23T06:25:48.946Z,99041.38
2023-02-23T06:28:20.821Z,99054.19
2023-02-23T06:30:55.061Z,99049.31
2023-02-23T06:33:26.932Z,99055.75
2023-02-23T06:35:59.647Z,99049.25
2023-02-23T06:38:31.502Z,99062.03
2023-02-23T06:41:10.646Z,99062.41
2023-02-23T06:43:42.410Z,99065.25
2023-02-23T06:46:14.055Z,99062.03
2023-02-23T06:48:45.744Z,99062.09
2023-02-23T06:51:17.819Z,99062.84
2023-02-23T06:53:49.824Z,99068.81
2023-02-23T06:56:21.881Z,99070.19
2023-02-23T06:58:53.612Z,99062.88
2023-02-23T07:01:25.278Z,99066.81
2023-02-23T07:03:57.007Z,99066.72
2023-02-23T07:06:29.118Z,99066.16
2023-02-23T07:09:01.008Z,99061.78
2023-02-23T07:11:32.738Z,99067.31
2023-02-23T07:14:04.500Z,99063.06
2023-02-23T07:16:36.897Z,99055.97
2023-02-23T07:19:08.910Z,99059.16
2023-02-23T07:21:40.574Z,99058.19
2023-02-23T07:24:12.403Z,99064.53
2023-02-23T07:26:47.344Z,99056.78
2023-02-23T07:29:26.260Z,99059.16
2023-02-23T07:31:58.033Z,99054.84
2023-02-23T07:34:29.807Z,99055.28
2023-02-23T07:37:01.543Z,99054.56
2023-02-23T07:39:33.243Z,99049.81
2023-02-23T07:42:05.030Z,99057.63
2023-02-23T07:44:38.196Z,99060.03
2023-02-23T07:47:10.856Z,99051.13
2023-02-23T07:49:42.794Z,99055.41
2023-02-23T07:52:18.459Z,99050.25
2023-02-23T07:54:52.985Z,99045.19
2023-02-23T07:57:25.194Z,99051.13
2023-02-23T07:59:56.879Z,99048.03
2023-02-23T08:02:32.946Z,99055.38
2023-02-23T08:05:06.205Z,99048.28
2023-02-23T08:07:37.903Z,99046.50
2023-02-23T08:10:10.298Z,99046.03
2023-02-23T08:12:41.998Z,99051.44
2023-02-23T08:15:13.926Z,99042.09
2023-02-23T08:17:45.628Z,99054.25
2023-02-23T08:20:17.520Z,99049.34
2023-02-23T08:22:54.510Z,99042.28
2023-02-23T08:25:29.465Z,99040.56
2023-02-23T08:28:04.753Z,99045.22
2023-02-23T08:30:36.791Z,99043.94
2023-02-23T08:33:11.368Z,99036.22
2023-02-23T08:35:42.921Z,99031.00
2023-02-23T08:38:16.610Z,99037.69
2023-02-23T08:40:48.354Z,99039.19
2023-02-23T08:43:19.981Z,99038.75
2023-02-23T08:45:54.547Z,99027.78
2023-02-23T08:48:26.470Z,99035.97
2023-02-23T08:50:59.497Z,99036.31
2023-02-23T08:53:32.411Z,99035.75
2023-02-23T08:56:08.121Z,99032.69
2023-02-23T08:58:39.862Z,99035.59
2023-02-23T09:01:18.574Z,99031.97
2023-02-23T09:03:50.479Z,99039.16
2023-02-23T09:06:25.503Z,99033.28
2023-02-23T09:08:57.270Z,99038.97
2023-02-23T09:11:28.978Z,99034.44
2023-02-23T09:14:03.576Z,99036.78
2023-02-23T09:16:36.450Z,99033.56
2023-02-23T09:19:08.135Z,99031.28
2023-02-23T09:21:40.470Z,99027.66
2023-02-23T09:24:12.165Z,99022.06
2023-02-23T09:26:45.838Z,99020.75
2023-02-23T09:29:17.702Z,99022.78
2023-02-23T09:31:52.913Z,99024.31
2023-02-23T09:34:24.871Z,99022.31
2023-02-23T09:36:56.724Z,99020.22
2023-02-23T09:39:37.688Z,99028.16
2023-02-23T09:42:42.797Z,99031.25
2023-02-23T09:45:31.077Z,99025.31
2023-02-23T09:48:13.983Z,99021.34
2023-02-23T09:50:50.190Z,99023.22
2023-02-23T09:53:33.441Z,99018.78
2023-02-23T09:56:17.947Z,99020.72
2023-02-23T09:58:50.909Z,99025.47
2023-02-23T10:01:48.569Z,99020.88
2023-02-23T10:04:28.876Z,99022.00
2023-02-23T10:07:21.094Z,99025.00
2023-02-23T10:10:07.819Z,99022.19
2023-02-23T10:12:54.163Z,99028.81
2023-02-23T10:15:55.538Z,99021.56
2023-02-23T10:18:46.473Z,99033.41
2023-02-23T10:21:30.455Z,99029.66
2023-02-23T10:24:10.520Z,99026.22
2023-02-23T10:26:54.236Z,99021.72
2023-02-23T10:29:34.883Z,99021.34
2023-02-23T10:32:18.412Z,99016.78
2023-02-23T10:34:54.556Z,99018.72
2023-02-23T10:37:26.643Z,99006.81
2023-02-23T10:39:58.470Z,99006.03
2023-02-23T10:42:31.861Z,99020.19
2023-02-23T10:45:03.688Z,99005.38
2023-02-23T10:47:36.307Z,99011.06
2023-02-23T10:50:10.915Z,99010.50
2023-02-23T10:52:49.154Z,99003.72
2023-02-23T10:55:30.435Z,99002.09
2023-02-23T10:58:20.681Z,98989.56
2023-02-23T11:00:58.598Z,98994.34
2023-02-23T11:03:36.188Z,98987.22
2023-02-23T11:06:39.662Z,98988.69
2023-02-23T11:09:45.607Z,98988.25
2023-02-23T11:12:39.636Z,98986.19
2023-02-23T11:15:22.552Z,98969.25
2023-02-23T11:17:59.379Z,98972.06
2023-02-23T11:20:38.554Z,98969.19
2023-02-23T11:23:34.054Z,98965.22
2023-02-23T11:26:35.211Z,98961.31
2023-02-23T11:29:35.330Z,98967.28
2023-02-23T11:32:10.223Z,98955.13
2023-02-23T11:34:43.752Z,98951.44
2023-02-23T11:37:20.239Z,98947.00
2023-02-23T11:39:53.594Z,98956.97
2023-02-23T11:42:27.665Z,98953.69
2023-02-23T11:45:03.844Z,98949.94
2023-02-23T11:47:40.335Z,98947.94
2023-02-23T11:50:34.125Z,98948.59
2023-02-23T11:53:13.877Z,98940.94
2023-02-23T11:55:51.424Z,98938.19
2023-02-23T11:58:32.183Z,98938.91
2023-02-23T12:01:12.375Z,98941.28
2023-02-23T12:03:51.875Z,98934.34
2023-02-23T12:06:33.187Z,98938.47
2023-02-23T12:09:34.919Z,98937.09
2023-02-23T12:12:14.008Z,98933.84
2023-02-23T12:14:56.462Z,98930.13
2023-02-23T12:17:34.253Z,98926.31
2023-02-23T12:20:21.872Z,98920.63
2023-02-23T12:22:59.429Z,98926.09
2023-02-23T12:25:45.595Z,98919.16
2023-02-23T12:28:27.848Z,98916.88
2023-02-23T12:31:17.844Z,98914.72
2023-02-23T12:34:01.281Z,98912.72
2023-02-23T12:36:43.419Z,98911.75
2023-02-23T12:39:37.256Z,98910.94
2023-02-23T12:42:20.530Z,98910.28
2023-02-23T12:45:01.823Z,98904.41
2023-02-23T12:47:53.636Z,98900.84
2023-02-23T12:50:35.825Z,98898.84
2023-02-23T12:53:42.909Z,98898.50
2023-02-23T12:56:23.494Z,98891.94
2023-02-23T12:59:14.343Z,98890.28
2023-02-23T13:02:02.911Z,98892.25
2023-02-23T13:04:59.116Z,98892.31
2023-02-23T13:07:47.423Z,98890.44
2023-02-23T13:10:49.991Z,98886.50
2023-02-23T13:13:41.047Z,98885.78
2023-02-23T13:16:35.487Z,98881.91
2023-02-23T13:19:16.712Z,98873.66
2023-02-23T13:21:54.580Z,98874.47
2023-02-23T13:24:31.838Z,98877.94
2023-02-23T13:27:23.309Z,98872.38
2023-02-23T13:29:56.796Z,98864.16
2023-02-23T13:32:37.876Z,98867.19
2023-02-23T13:35:20.446Z,98865.16
2023-02-23T13:37:54.655Z,98859.59
2023-02-23T13:40:32.566Z,98863.19
2023-02-23T13:43:33.466Z,98867.69
2023-02-23T13:46:37.427Z,98864.22
2023-02-23T13:49:46.460Z,98866.47
2023-02-23T13:52:39.806Z,98861.53
2023-02-23T13:55:27.312Z,98858.81
2023-02-23T13:58:05.351Z,98851.53
2023-02-23T14:00:37.525Z,98856.81
2023-02-23T14:03:22.684Z,98858.25
2023-02-23T14:06:01.391Z,98861.78
2023-02-23T14:08:37.350Z,98861.88
2023-02-23T14:11:09.633Z,98854.41
2023-02-23T14:13:57.325Z,98854.88
2023-02-23T14:16:29.722Z,98854.69
2023-02-23T14:19:04.214Z,98853.84
2023-02-23T14:21:52.308Z,98851.94
2023-02-23T14:24:26.024Z,98851.97
2023-02-23T14:27:34.086Z,98853.84
2023-02-23T14:30:10.430Z,98853.47
2023-02-23T14:32:47.660Z,98858.78
2023-02-23T14:35:34.591Z,98851.63
2023-02-23T14:38:35.968Z,98845.94
2023-02-23T14:41:13.926Z,98845.75
2023-02-23T14:43:45.980Z,98850.06
2023-02-23T14:46:22.877Z,98845.41
2023-02-23T14:49:19.280Z,98839.47
2023-02-23T14:52:00.186Z,98845.78
2023-02-23T14:54:37.919Z,98838.44
2023-02-23T14:57:21.633Z,98842.34
2023-02-23T15:00:06.840Z,98842.94
2023-02-23T15:02:45.831Z,98842.53
2023-02-23T15:05:32.693Z,98841.09
2023-02-23T15:08:07.382Z,98847.00
2023-02-23T15:10:40.662Z,98845.78
2023-02-23T15:13:29.251Z,98843.94
2023-02-23T15:16:08.966Z,98843.94
2023-02-23T15:18:42.960Z,98836.38
2023-02-23T15:21:22.712Z,98841.88
2023-02-23T15:24:10.913Z,98834.72
2023-02-23T15:26:43.766Z,98836.97
2023-02-23T15:29:18.907Z,98838.16
2023-02-23T15:31:54.282Z,98835.31
2023-02-23T15:34:27.921Z,98833.91
2023-02-23T15:37:26.418Z,98837.97
2023-02-23T15:40:06.071Z,98827.97
2023-02-23T15:42:54.163Z,98829.78
2023-02-23T15:45:36.137Z,98832.00
2023-02-23T15:48:17.245Z,98828.13
2023-02-23T15:50:53.331Z,98824.84
2023-02-23T15:53:38.468Z,98822.78
2023-02-23T15:56:20.247Z,98823.59
2023-02-23T15:58:57.157Z,98817.69
2023-02-23T16:01:31.242Z,98822.38
2023-02-23T16:04:09.408Z,98811.94
2023-02-23T16:06:51.125Z,98817.63
2023-02-23T16:09:27.596Z,98818.84
2023-02-23T16:12:21.786Z,98815.94
2023-02-23T16:14:56.825Z,98816.59
2023-02-23T16:17:45.315Z,98810.69
2023-02-23T16:20:34.826Z,98806.19
2023-02-23T16:23:17.651Z,98814.50
2023-02-23T16:25:54.257Z,98808.16
2023-02-23T16:28:34.200Z,98817.31
2023-02-23T16:31:08.424Z,98819.75
2023-02-23T16:33:51.068Z,98810.75
2023-02-23T16:36:24.855Z,98808.50
2023-02-23T16:39:00.060Z,98810.09
2023-02-23T16:41:35.647Z,98808.09
2023-02-23T16:44:16.226Z,98819.75
2023-02-23T16:47:03.471Z,98822.19
2023-02-23T16:49:35.317Z,98821.38
2023-02-23T16:52:20.057Z,98819.13
2023-02-23T16:54:54.596Z,98822.75
2023-02-23T16:57:29.594Z,98827.44
2023-02-23T17:00:01.381Z,98825.56
2023-02-23T17:02:36.170Z,98830.03
2023-02-23T17:05:18.927Z,98825.38
2023-02-23T17:07:52.089Z,98830.25
2023-02-23T17:10:27.385Z,98830.44
2023-02-23T17:13:12.759Z,98828.13
2023-02-23T17:15:50.615Z,98835.25
2023-02-23T17:21:05.249Z,98824.28
2023-02-23T17:23:42.432Z,98828.75
2023-02-23T17:26:14.828Z,98832.81
2023-02-23T17:28:46.739Z,98832.16
2023-02-23T17:31:20.564Z,98829.41
2023-02-23T17:33:53.654Z,98830.97
2023-02-23T17:36:27.514Z,98832.97
2023-02-23T17:38:59.833Z,98829.09
2023-02-23T17:41:32.411Z,98831.03
2023-02-23T17:44:09.822Z,98822.09
2023-02-23T17:46:41.697Z,98827.34
2023-02-23T17:49:13.467Z,98826.09
2023-02-23T17:51:45.251Z,98827.03
2023-02-23T17:54:18.132Z,98821.09
2023-02-23T17:56:49.919Z,98826.97
2023-02-23T17:59:22.109Z,98822.06
2023-02-23T18:01:54.104Z,98822.63
2023-02-23T18:04:25.927Z,98822.63
2023-02-23T18:06:57.880Z,98816.06
2023-02-23T18:09:29.611Z,98823.78
2023-02-23T18:12:01.407Z,98830.25
2023-02-23T18:14:33.531Z,98820.84
2023-02-23T18:17:05.411Z,98817.13
2023-02-23T18:19:39.800Z,98815.03
2023-02-23T18:22:11.576Z,98822.34
2023-02-23T18:24:43.624Z,98820.88
2023-02-23T18:27:15.333Z,98830.03
2023-02-23T18:29:47.176Z,98824.94
2023-02-23T18:32:19.398Z,98826.94
2023-02-23T18:34:51.361Z,98825.50
2023-02-23T18:37:28.986Z,98821.38
2023-02-23T18:40:00.761Z,98820.13
2023-02-23T18:42:32.496Z,98816.19
2023-02-23T18:45:04.686Z,98815.13
2023-02-23T18:47:36.623Z,98818.16
2023-02-23T18:50:12.739Z,98814.25
2023-02-23T18:52:46.734Z,98821.53
2023-02-23T18:55:21.585Z,98817.81
2023-02-23T18:57:55.317Z,98810.06
2023-02-23T19:00:33.805Z,98814.53
2023-02-23T19:03:05.760Z,98816.34
2023-02-23T19:05:37.939Z,98819.38
2023-02-23T19:08:13.546Z,98820.56
2023-02-23T19:10:48.846Z,98825.03
2023-02-23T19:13:22.316Z,98823.31
2023-02-23T19:15:54.394Z,98820.41
2023-02-23T19:18:27.566Z,98821.59
2023-02-23T19:20:59.335Z,98813.66
2023-02-23T19:23:33.862Z,98811.66
2023-02-23T19:26:05.745Z,98806.09
2023-02-23T19:28:37.634Z,98808.72
2023-02-23T19:31:15.934Z,98807.13
2023-02-23T19:33:49.481Z,98809.28
2023-02-23T19:36:23.614Z,98813.31
2023-02-23T19:39:10.526Z,98809.41
2023-02-23T19:41:47.888Z,98809.56
2023-02-23T19:44:22.405Z,98806.47
2023-02-23T19:46:54.236Z,98813.94
2023-02-23T19:49:28.026Z,98806.41
2023-02-23T19:52:00.784Z,98812.41
2023-02-23T19:54:38.018Z,98807.56
2023-02-23T19:57:10.059Z,98812.50
2023-02-23T19:59:42.074Z,98797.28
2023-02-23T20:02:13.844Z,98806.03
2023-02-23T20:04:49.669Z,98798.19
2023-02-23T20:07:21.594Z,98803.03
2023-02-23T20:09:53.495Z,98792.44
2023-02-23T20:12:25.181Z,98793.28
2023-02-23T20:14:57.772Z,98793.28
2023-02-23T20:17:29.581Z,98788.00
2023-02-23T20:20:01.996Z,98791.47
2023-02-23T20:22:36.452Z,98786.81
2023-02-23T20:25:15.532Z,98785.78
2023-02-23T20:27:48.926Z,98778.69
2023-02-23T20:30:22.145Z,98789.09
2023-02-23T20:32:54.747Z,98786.63
2023-02-23T20:35:27.745Z,98782.34
2023-02-23T20:37:59.661Z,98783.06
2023-02-23T20:40:31.446Z,98784.69
2023-02-23T20:43:04.280Z,98778.44
2023-02-23T20:45:36.156Z,98778.34
2023-02-23T20:48:09.695Z,98769.59
2023-02-23T20:50:42.447Z,98769.78
2023-02-23T20:53:14.165Z,98766.94
2023-02-23T20:55:46.306Z,98764.41
2023-02-23T20:58:26.153Z,98758.03
2023-02-23T21:00:58.163Z,98757.84
2023-02-23T21:03:29.878Z,98756.66
2023-02-23T21:06:01.680Z,98747.94
2023-02-23T21:08:33.397Z,98751.38
2023-02-23T21:11:06.405Z,98758.31
2023-02-23T21:13:38.086Z,98754.84
2023-02-23T21:16:14.803Z,98753.84
2023-02-23T21:18:52.602Z,98749.56
2023-02-23T21:21:24.313Z,98756.50
2023-02-23T21:23:56.011Z,98755.03
2023-02-23T21:26:30.506Z,98745.28
2023-02-23T21:29:02.858Z,98737.75
2023-02-23T21:31:34.721Z,98748.09
2023-02-23T21:34:06.774Z,98742.38
2023-02-23T21:36:39.171Z,98743.94
2023-02-23T21:39:11.203Z,98739.66
2023-02-23T21:41:42.869Z,98739.53
2023-02-23T21:44:14.599Z,98740.41
2023-02-23T21:46:46.381Z,98730.69
2023-02-23T21:49:19.214Z,98731.00
2023-02-23T21:51:52.572Z,98723.59
2023-02-23T21:54:25.229Z,98731.22
2023-02-23T21:56:56.976Z,98725.94
2023-02-23T21:59:29.043Z,98725.59
2023-02-23T22:02:03.823Z,98728.69
2023-02-23T22:04:36.933Z,98735.13
2023-02-23T22:07:08.901Z,98728.25
2023-02-23T22:09:40.615Z,98733.03
2023-02-23T22:12:12.414Z,98737.16
2023-02-23T22:14:44.123Z,98731.88
2023-02-23T22:17:18.950Z,98723.97
2023-02-23T22:19:51.969Z,98723.78
2023-02-23T22:22:23.763Z,98718.50
2023-02-23T22:24:55.429Z,98719.03
2023-02-23T22:27:27.225Z,98720.84
2023-02-23T22:29:59.614Z,98721.66
2023-02-23T22:32:32.983Z,98723.78
2023-02-23T22:35:06.544Z,98721.66
2023-02-23T22:37:39.194Z,98718.94
2023-02-23T22:40:13.505Z,98721.13
2023-02-23T22:42:48.434Z,98720.28
2023-02-23T22:45:20.444Z,98710.41
2023-02-23T22:47:52.268Z,98711.84
2023-02-23T22:50:25.145Z,98711.66
2023-02-23T22:52:56.854Z,98713.47
2023-02-23T22:55:29.534Z,98703.19
2023-02-23T22:58:01.604Z,98700.38
2023-02-23T23:00:36.291Z,98709.56
2023-02-23T23:03:07.976Z,98692.84
2023-02-23T23:05:39.847Z,98694.19
2023-02-23T23:08:14.255Z,98695.81
2023-02-23T23:10:52.144Z,98695.94
2023-02-23T23:13:23.949Z,98692.28
2023-02-23T23:16:07.560Z,98688.34
2023-02-23T23:18:43.301Z,98696.09
2023-02-23T23:21:24.443Z,98689.81
2023-02-23T23:24:01.170Z,98688.28
2023-02-23T23:26:35.424Z,98681.88
2023-02-23T23:29:11.367Z,98685.00
2023-02-23T23:31:46.695Z,98681.72
2023-02-23T23:34:21.678Z,98675.38
2023-02-23T23:36:55.173Z,98675.53
2023-02-23T23:39:27.558Z,98669.81
2023-02-23T23:42:01.793Z,98668.19
2023-02-23T23:44:33.873Z,98669.16
2023-02-23T23:47:05.717Z,98664.88
2023-02-23T23:49:40.854Z,98662.25
2023-02-23T23:52:17.777Z,98664.88
2023-02-23T23:54:49.913Z,98647.69
2023-02-23T23:57:21.605Z,98656.69
2023-02-23T23:59:53.753Z,98651.88
